createdAt,value
2022-09-06T00:00:46.947Z,16.11
2022-09-06T00:03:35.343Z,15.70
2022-09-06T00:06:23.714Z,15.88
2022-09-06T00:09:13.317Z,15.97
2022-09-06T00:12:01.634Z,15.92
2022-09-06T00:14:50.037Z,15.92
2022-09-06T00:17:38.332Z,15.78
2022-09-06T00:20:27.468Z,15.79
2022-09-06T00:23:16.254Z,15.81
2022-09-06T00:26:06.689Z,15.61
2022-09-06T00:28:54.986Z,15.48
2022-09-06T00:31:43.297Z,15.46
2022-09-06T00:34:31.538Z,15.50
2022-09-06T00:37:19.841Z,15.35
2022-09-06T00:40:09.627Z,15.29
2022-09-06T00:42:59.385Z,15.39
2022-09-06T00:45:47.855Z,15.23
2022-09-06T00:48:38.835Z,15.41
2022-09-06T00:51:29.693Z,15.37
2022-09-06T00:54:18.047Z,15.28
2022-09-06T00:57:06.801Z,15.35
2022-09-06T00:59:57.673Z,15.38
2022-09-06T01:02:46.084Z,15.31
2022-09-06T01:05:43.602Z,15.30
2022-09-06T01:08:54.570Z,15.25
2022-09-06T01:11:54.888Z,15.16
2022-09-06T01:14:57.131Z,15.20
2022-09-06T01:17:56.145Z,15.22
2022-09-06T01:20:56.682Z,15.10
2022-09-06T01:24:17.821Z,15.18
2022-09-06T01:27:42.748Z,15.22
2022-09-06T01:30:34.868Z,15.21
2022-09-06T01:33:31.153Z,15.16
2022-09-06T01:36:25.905Z,15.12
2022-09-06T01:39:27.877Z,15.25
2022-09-06T01:42:19.260Z,15.14
2022-09-06T01:45:12.301Z,15.06
2022-09-06T01:48:10.567Z,15.01
2022-09-06T01:51:11.028Z,15.12
2022-09-06T01:54:16.660Z,14.70
2022-09-06T01:57:16.294Z,14.66
2022-09-06T02:00:09.277Z,14.58
2022-09-06T02:03:10.491Z,14.69
2022-09-06T02:06:04.514Z,14.80
2022-09-06T02:08:57.154Z,14.66
2022-09-06T02:11:50.764Z,14.70
2022-09-06T02:14:44.502Z,14.85
2022-09-06T02:17:35.516Z,14.88
2022-09-06T02:20:27.991Z,14.77
2022-09-06T02:23:17.652Z,14.80
2022-09-06T02:26:11.050Z,14.66
2022-09-06T02:28:59.431Z,14.76
2022-09-06T02:31:54.758Z,14.73
2022-09-06T02:34:46.193Z,14.70
2022-09-06T02:37:36.210Z,14.76
2022-09-06T02:40:25.320Z,14.68
2022-09-06T02:43:13.698Z,14.62
2022-09-06T02:46:02.079Z,14.53
2022-09-06T02:48:50.414Z,14.58
2022-09-06T02:51:39.497Z,14.63
2022-09-06T02:54:29.146Z,14.44
2022-09-06T02:57:17.373Z,14.40
2022-09-06T03:00:06.800Z,14.48
2022-09-06T03:02:55.852Z,14.37
2022-09-06T03:05:47.742Z,14.45
2022-09-06T03:08:36.606Z,14.33
2022-09-06T03:11:26.250Z,14.40
2022-09-06T03:14:16.307Z,14.40
2022-09-06T03:17:05.353Z,14.37
2022-09-06T03:19:53.645Z,14.36
2022-09-06T03:22:42.054Z,14.32
2022-09-06T03:25:30.327Z,14.31
2022-09-06T03:28:21.147Z,14.30
2022-09-06T03:31:09.511Z,14.33
2022-09-06T03:33:57.817Z,14.21
2022-09-06T03:36:46.058Z,14.01
2022-09-06T03:39:34.377Z,14.07
2022-09-06T03:42:22.943Z,14.06
2022-09-06T03:45:12.653Z,14.06
2022-09-06T03:48:00.927Z,14.05
2022-09-06T03:50:50.982Z,13.83
2022-09-06T03:53:39.247Z,13.87
2022-09-06T03:56:27.564Z,13.97
2022-09-06T03:59:15.777Z,13.93
2022-09-06T04:02:06.601Z,13.95
2022-09-06T04:04:55.695Z,13.96
2022-09-06T04:07:44.465Z,13.94
2022-09-06T04:10:32.860Z,13.90
2022-09-06T04:13:21.306Z,13.92
2022-09-06T04:16:09.628Z,13.84
2022-09-06T04:19:00.895Z,13.66
2022-09-06T04:21:49.229Z,13.69
2022-09-06T04:24:37.951Z,13.78
2022-09-06T04:27:26.201Z,13.81
2022-09-06T04:30:14.521Z,13.86
2022-09-06T04:33:02.815Z,13.86
2022-09-06T04:35:53.172Z,13.93
2022-09-06T04:38:43.447Z,13.78
2022-09-06T04:41:31.681Z,13.75
2022-09-06T04:44:20.163Z,13.82
2022-09-06T04:47:12.828Z,13.91
2022-09-06T04:50:01.079Z,13.85
2022-09-06T04:52:50.719Z,13.99
2022-09-06T04:55:39.590Z,14.01
2022-09-06T04:58:27.893Z,14.12
2022-09-06T05:01:16.980Z,14.01
2022-09-06T05:04:05.219Z,14.15
2022-09-06T05:07:01.200Z,14.28
2022-09-06T05:09:50.846Z,14.39
2022-09-06T05:12:43.611Z,14.44
2022-09-06T05:15:33.702Z,14.44
2022-09-06T05:18:22.296Z,14.48
2022-09-06T05:21:10.602Z,14.48
2022-09-06T05:23:58.947Z,14.51
2022-09-06T05:26:48.691Z,14.70
2022-09-06T05:29:36.976Z,14.76
2022-09-06T05:32:25.410Z,14.87
2022-09-06T05:35:13.931Z,15.00
2022-09-06T05:38:02.282Z,15.06
2022-09-06T05:40:50.643Z,15.19
2022-09-06T05:43:40.325Z,15.15
2022-09-06T05:46:28.682Z,15.31
2022-09-06T05:49:17.035Z,15.47
2022-09-06T05:52:05.368Z,15.43
2022-09-06T05:54:53.620Z,15.48
2022-09-06T05:57:42.008Z,15.53
2022-09-06T06:00:31.730Z,15.79
2022-09-06T06:03:20.166Z,15.74
2022-09-06T06:06:08.839Z,16.00
2022-09-06T06:08:57.538Z,16.07
2022-09-06T06:11:45.907Z,16.03
2022-09-06T06:14:34.167Z,15.89
2022-09-06T06:17:24.069Z,16.04
2022-09-06T06:20:12.330Z,16.14
2022-09-06T06:23:00.608Z,16.21
2022-09-06T06:25:49.103Z,16.41
2022-09-06T06:28:38.097Z,16.52
2022-09-06T06:31:26.408Z,16.54
2022-09-06T06:34:16.533Z,16.75
2022-09-06T06:37:04.939Z,16.96
2022-09-06T06:39:53.273Z,17.05
2022-09-06T06:42:41.627Z,17.15
2022-09-06T06:45:29.980Z,17.12
2022-09-06T06:48:18.740Z,16.97
2022-09-06T06:51:08.837Z,17.38
2022-09-06T06:53:57.941Z,17.45
2022-09-06T06:56:46.217Z,17.68
2022-09-06T06:59:34.570Z,17.52
2022-09-06T07:02:22.985Z,17.91
2022-09-06T07:08:21.027Z,18.17
2022-09-06T07:11:11.075Z,18.39
2022-09-06T07:13:59.323Z,18.40
2022-09-06T07:16:47.837Z,18.57
2022-09-06T07:22:44.470Z,18.56
2022-09-06T07:25:34.431Z,18.50
2022-09-06T07:28:23.726Z,18.83
2022-09-06T07:34:20.936Z,18.84
2022-09-06T07:37:09.353Z,18.88
2022-09-06T07:39:57.690Z,18.73
2022-09-06T07:42:47.442Z,19.18
2022-09-06T07:45:35.998Z,19.30
2022-09-06T07:48:24.382Z,19.17
2022-09-06T07:51:14.666Z,19.41
2022-09-06T07:54:26.348Z,19.40
2022-09-06T07:57:12.174Z,19.57
2022-09-06T08:00:01.933Z,19.68
2022-09-06T08:03:00.120Z,19.63
2022-09-06T08:08:59.998Z,20.11
2022-09-06T08:11:48.969Z,20.08
2022-09-06T08:14:37.470Z,19.79
2022-09-06T08:17:27.145Z,20.15
2022-09-06T08:20:15.542Z,20.25
2022-09-06T08:23:04.760Z,20.07
2022-09-06T08:25:59.265Z,20.03
2022-09-06T08:28:48.104Z,20.47
2022-09-06T08:31:38.086Z,20.76
2022-09-06T08:34:27.937Z,20.61
2022-09-06T08:37:16.256Z,20.42
2022-09-06T08:40:05.168Z,20.69
2022-09-06T08:42:53.628Z,20.99
2022-09-06T08:45:42.895Z,21.08
2022-09-06T08:48:33.844Z,21.24
2022-09-06T08:51:57.453Z,20.89
2022-09-06T08:54:53.263Z,21.06
2022-09-06T08:58:00.720Z,20.95
2022-09-06T09:00:53.279Z,21.04
2022-09-06T09:03:44.575Z,20.93
2022-09-06T09:06:33.757Z,21.00
2022-09-06T09:09:23.471Z,21.01
2022-09-06T09:12:17.258Z,20.93
2022-09-06T09:15:10.699Z,20.95
2022-09-06T09:17:58.982Z,21.30
2022-09-06T09:20:47.380Z,21.49
2022-09-06T09:23:36.137Z,21.51
2022-09-06T09:26:28.100Z,21.60
2022-09-06T09:29:17.288Z,21.54
2022-09-06T09:32:05.963Z,21.66
2022-09-06T09:34:54.413Z,21.29
2022-09-06T09:37:46.533Z,21.93
2022-09-06T09:40:39.919Z,21.82
2022-09-06T09:43:31.896Z,22.08
2022-09-06T09:46:33.232Z,22.00
2022-09-06T09:49:30.679Z,21.84
2022-09-06T09:52:25.852Z,22.30
2022-09-06T09:55:14.066Z,22.18
2022-09-06T09:58:02.527Z,22.33
2022-09-06T10:01:11.417Z,22.58
2022-09-06T10:07:20.191Z,22.75
2022-09-06T10:10:13.876Z,22.85
2022-09-06T10:13:09.985Z,22.79
2022-09-06T10:16:03.938Z,22.83
2022-09-06T10:18:52.929Z,23.24
2022-09-06T10:21:41.282Z,23.03
2022-09-06T10:24:38.762Z,22.98
2022-09-06T10:27:28.761Z,22.58
2022-09-06T10:30:17.465Z,22.84
2022-09-06T10:33:17.951Z,23.16
2022-09-06T10:36:07.135Z,23.33
2022-09-06T10:39:03.513Z,23.34
2022-09-06T10:42:03.939Z,23.20
2022-09-06T10:45:12.966Z,23.27
2022-09-06T10:48:05.383Z,23.44
2022-09-06T10:50:58.585Z,23.61
2022-09-06T10:53:51.772Z,23.83
2022-09-06T10:56:45.195Z,23.44
2022-09-06T10:59:37.505Z,23.97
2022-09-06T11:02:39.427Z,24.27
2022-09-06T11:05:38.210Z,24.38
2022-09-06T11:08:51.159Z,24.77
2022-09-06T11:11:46.011Z,24.62
2022-09-06T11:14:36.461Z,24.54
2022-09-06T11:17:34.014Z,24.32
2022-09-06T11:20:31.946Z,24.32
2022-09-06T11:23:49.609Z,24.30
2022-09-06T11:26:44.614Z,24.29
2022-09-06T11:29:34.468Z,24.33
2022-09-06T11:32:35.390Z,24.64
2022-09-06T11:35:26.430Z,24.67
2022-09-06T11:38:24.815Z,24.65
2022-09-06T11:41:18.551Z,24.84
2022-09-06T11:44:08.110Z,24.51
2022-09-06T11:47:03.448Z,24.72
2022-09-06T11:49:52.575Z,25.07
2022-09-06T11:53:12.985Z,25.06
2022-09-06T11:56:29.376Z,25.51
2022-09-06T11:59:33.321Z,25.32
2022-09-06T12:02:35.362Z,25.65
2022-09-06T12:05:30.014Z,26.03
2022-09-06T12:08:33.059Z,25.91
2022-09-06T12:11:34.554Z,25.90
2022-09-06T12:14:36.027Z,26.28
2022-09-06T12:17:25.496Z,27.17
2022-09-06T12:20:52.429Z,27.75
2022-09-06T12:23:44.329Z,28.64
2022-09-06T12:26:54.472Z,28.51
2022-09-06T12:29:55.051Z,29.52
2022-09-06T12:32:46.549Z,30.10
2022-09-06T12:38:55.642Z,30.67
2022-09-06T12:41:50.064Z,30.42
2022-09-06T12:44:40.356Z,29.93
2022-09-06T12:47:32.200Z,29.94
2022-09-06T12:50:24.122Z,29.81
2022-09-06T12:53:24.691Z,29.26
2022-09-06T12:56:13.649Z,29.07
2022-09-06T12:59:27.319Z,29.25
2022-09-06T13:02:20.706Z,29.32
2022-09-06T13:05:12.869Z,29.63
2022-09-06T13:08:04.435Z,29.64
2022-09-06T13:10:54.224Z,29.57
2022-09-06T13:13:48.658Z,28.96
2022-09-06T13:16:43.404Z,28.85
2022-09-06T13:19:34.771Z,29.27
2022-09-06T13:22:41.225Z,28.61
2022-09-06T13:25:29.564Z,28.61
2022-09-06T13:28:29.672Z,28.50
2022-09-06T13:31:22.194Z,28.00
2022-09-06T13:34:11.855Z,28.18
2022-09-06T13:37:03.389Z,27.94
2022-09-06T13:39:52.379Z,28.07
2022-09-06T13:42:40.810Z,28.28
2022-09-06T13:45:31.097Z,28.01
2022-09-06T13:48:29.008Z,27.88
2022-09-06T13:51:19.361Z,27.71
2022-09-06T13:54:10.631Z,27.35
2022-09-06T13:56:59.254Z,27.47
2022-09-06T13:59:47.521Z,27.65
2022-09-06T14:02:35.964Z,27.66
2022-09-06T14:05:24.499Z,28.15
2022-09-06T14:08:14.240Z,28.00
2022-09-06T14:11:02.765Z,28.29
2022-09-06T14:13:51.085Z,28.03
2022-09-06T14:16:39.415Z,28.30
2022-09-06T14:19:27.835Z,28.53
2022-09-06T14:22:16.151Z,28.17
2022-09-06T14:25:07.571Z,27.82
2022-09-06T14:27:55.801Z,27.87
2022-09-06T14:30:44.128Z,27.76
2022-09-06T14:33:32.546Z,27.64
2022-09-06T14:36:23.352Z,27.49
2022-09-06T14:39:11.585Z,27.12
2022-09-06T14:42:01.241Z,26.98
2022-09-06T14:44:49.517Z,27.24
2022-09-06T14:47:37.757Z,26.93
2022-09-06T14:50:26.037Z,26.96
2022-09-06T14:53:38.938Z,27.10
2022-09-06T14:56:24.552Z,26.73
2022-09-06T14:59:14.645Z,26.89
2022-09-06T15:02:02.919Z,27.13
2022-09-06T15:04:51.199Z,27.20
2022-09-06T15:07:40.445Z,26.84
2022-09-06T15:10:28.776Z,27.00
2022-09-06T15:13:17.056Z,26.91
2022-09-06T15:16:07.853Z,26.85
2022-09-06T15:18:56.374Z,26.78
2022-09-06T15:21:44.653Z,27.09
2022-09-06T15:24:33.693Z,27.17
2022-09-06T15:27:22.646Z,27.16
2022-09-06T15:30:11.792Z,27.12
2022-09-06T15:33:01.454Z,27.06
2022-09-06T15:35:55.405Z,26.94
2022-09-06T15:38:47.440Z,27.46
2022-09-06T15:41:39.298Z,27.18
2022-09-06T15:44:27.597Z,27.06
2022-09-06T15:47:15.910Z,27.48
2022-09-06T15:50:07.174Z,27.25
2022-09-06T15:52:55.444Z,26.83
2022-09-06T15:55:59.295Z,26.70
2022-09-06T15:58:48.120Z,26.35
2022-09-06T16:01:36.915Z,26.25
2022-09-06T16:04:25.383Z,25.94
2022-09-06T16:07:15.207Z,25.66
2022-09-06T16:10:03.728Z,25.77
2022-09-06T16:12:53.017Z,25.48
2022-09-06T16:15:41.790Z,25.43
2022-09-06T16:18:31.918Z,25.46
2022-09-06T16:21:24.030Z,25.26
2022-09-06T16:24:15.636Z,24.93
2022-09-06T16:27:04.057Z,24.93
2022-09-06T16:29:52.751Z,24.56
2022-09-06T16:32:41.111Z,24.51
2022-09-06T16:35:29.456Z,24.45
2022-09-06T16:38:18.392Z,24.18
2022-09-06T16:41:14.509Z,24.13
2022-09-06T16:44:03.343Z,23.93
2022-09-06T16:46:53.527Z,23.64
2022-09-06T16:49:41.966Z,23.49
2022-09-06T16:52:30.351Z,23.26
2022-09-06T16:55:18.789Z,23.13
2022-09-06T16:58:08.552Z,22.98
2022-09-06T17:00:57.155Z,22.66
2022-09-06T17:03:45.546Z,22.78
2022-09-06T17:06:38.298Z,22.47
2022-09-06T17:09:26.684Z,22.27
2022-09-06T17:12:17.603Z,22.23
2022-09-06T17:15:08.924Z,22.06
2022-09-06T17:17:56.270Z,21.90
2022-09-06T17:20:55.882Z,21.72
2022-09-06T17:23:44.335Z,21.50
2022-09-06T17:26:34.013Z,21.56
2022-09-06T17:29:22.906Z,21.54
2022-09-06T17:32:12.558Z,21.34
2022-09-06T17:35:01.081Z,21.23
2022-09-06T17:37:49.478Z,21.09
2022-09-06T17:40:37.978Z,20.96
2022-09-06T17:43:26.295Z,20.80
2022-09-06T17:46:14.938Z,20.69
2022-09-06T17:49:05.476Z,20.49
2022-09-06T17:51:53.965Z,20.43
2022-09-06T17:54:42.493Z,20.27
2022-09-06T17:57:30.759Z,20.03
2022-09-06T18:00:19.454Z,20.27
2022-09-06T18:03:07.915Z,20.33
2022-09-06T18:06:03.806Z,20.24
2022-09-06T18:08:54.503Z,20.07
2022-09-06T18:11:45.699Z,19.98
2022-09-06T18:14:34.425Z,19.75
2022-09-06T18:17:24.102Z,19.74
2022-09-06T18:20:14.099Z,19.58
2022-09-06T18:23:04.093Z,19.59
2022-09-06T18:25:57.541Z,19.53
2022-09-06T18:28:46.064Z,19.33
2022-09-06T18:31:34.562Z,19.39
2022-09-06T18:34:23.175Z,19.31
2022-09-06T18:37:12.370Z,19.01
2022-09-06T18:40:02.222Z,19.02
2022-09-06T18:42:50.662Z,18.97
2022-09-06T18:45:39.009Z,19.04
2022-09-06T18:48:27.444Z,19.17
2022-09-06T18:51:16.427Z,19.15
2022-09-06T18:54:04.786Z,18.96
2022-09-06T18:56:54.492Z,18.88
2022-09-06T18:59:42.879Z,18.88
2022-09-06T19:02:31.398Z,18.85
2022-09-06T19:05:20.712Z,18.85
2022-09-06T19:08:08.960Z,18.66
2022-09-06T19:11:01.980Z,18.69
2022-09-06T19:13:54.725Z,18.44
2022-09-06T19:16:43.120Z,18.23
2022-09-06T19:19:31.530Z,18.32
2022-09-06T19:22:20.135Z,18.25
2022-09-06T19:25:10.861Z,18.25
2022-09-06T19:27:59.242Z,18.27
2022-09-06T19:30:48.965Z,18.25
2022-09-06T19:33:37.442Z,18.18
2022-09-06T19:36:27.781Z,18.07
2022-09-06T19:39:17.496Z,17.91
2022-09-06T19:42:06.313Z,17.98
2022-09-06T19:44:54.776Z,17.85
2022-09-06T19:47:45.125Z,17.66
2022-09-06T19:50:34.501Z,17.60
2022-09-06T19:53:22.824Z,17.46
2022-09-06T19:56:12.021Z,17.50
2022-09-06T19:59:02.229Z,17.52
2022-09-06T20:01:50.565Z,17.50
2022-09-06T20:04:40.260Z,17.44
2022-09-06T20:07:28.611Z,17.25
2022-09-06T20:10:17.174Z,17.22
2022-09-06T20:13:05.586Z,17.11
2022-09-06T20:15:54.647Z,17.10
2022-09-06T20:18:43.316Z,17.08
2022-09-06T20:21:33.300Z,17.10
2022-09-06T20:24:21.704Z,17.01
2022-09-06T20:27:09.961Z,16.94
2022-09-06T20:29:59.243Z,16.89
2022-09-06T20:32:47.555Z,16.88
2022-09-06T20:35:35.891Z,16.66
2022-09-06T20:38:25.917Z,16.72
2022-09-06T20:41:16.229Z,16.60
2022-09-06T20:44:04.868Z,16.59
2022-09-06T20:46:53.253Z,16.54
2022-09-06T20:49:41.578Z,16.45
2022-09-06T20:52:30.414Z,16.44
2022-09-06T20:55:20.257Z,16.30
2022-09-06T20:58:08.599Z,16.29
2022-09-06T21:00:57.734Z,16.21
2022-09-06T21:03:46.236Z,16.07
2022-09-06T21:06:36.177Z,16.08
2022-09-06T21:09:24.818Z,16.03
2022-09-06T21:12:14.470Z,16.06
2022-09-06T21:15:03.087Z,15.91
2022-09-06T21:17:54.205Z,16.00
2022-09-06T21:20:42.889Z,15.75
2022-09-06T21:23:33.405Z,15.80
2022-09-06T21:26:22.874Z,15.78
2022-09-06T21:29:12.996Z,15.82
2022-09-06T21:32:04.457Z,15.67
2022-09-06T21:34:53.032Z,15.84
2022-09-06T21:37:44.281Z,15.81
2022-09-06T21:40:35.385Z,15.63
2022-09-06T21:43:24.857Z,15.75
2022-09-06T21:46:17.983Z,15.80
2022-09-06T21:49:08.537Z,15.64
2022-09-06T21:51:57.179Z,15.48
2022-09-06T21:54:48.129Z,15.62
2022-09-06T21:57:36.660Z,15.73
2022-09-06T22:00:28.439Z,15.74
2022-09-06T22:03:18.785Z,15.69
2022-09-06T22:06:11.645Z,15.55
2022-09-06T22:09:02.422Z,15.65
2022-09-06T22:11:52.914Z,15.61
2022-09-06T22:14:41.821Z,15.66
2022-09-06T22:17:30.907Z,15.61
2022-09-06T22:20:22.210Z,15.27
2022-09-06T22:23:11.186Z,15.56
2022-09-06T22:26:04.624Z,15.43
2022-09-06T22:28:56.043Z,15.31
2022-09-06T22:31:44.896Z,15.47
2022-09-06T22:34:34.422Z,15.43
2022-09-06T22:37:24.450Z,15.45
2022-09-06T22:40:13.420Z,15.26
2022-09-06T22:43:02.556Z,15.44
2022-09-06T22:45:52.092Z,15.34
2022-09-06T22:48:41.255Z,15.29
2022-09-06T22:51:30.022Z,15.22
2022-09-06T22:54:20.072Z,15.17
2022-09-06T22:57:08.743Z,15.36
2022-09-06T22:59:57.546Z,15.27
2022-09-06T23:02:46.304Z,15.30
2022-09-06T23:05:35.066Z,15.29
2022-09-06T23:08:23.802Z,15.11
2022-09-06T23:11:16.065Z,15.14
2022-09-06T23:14:05.352Z,15.14
2022-09-06T23:16:53.962Z,15.02
2022-09-06T23:19:42.688Z,14.80
2022-09-06T23:22:31.755Z,14.96
2022-09-06T23:25:20.492Z,14.84
2022-09-06T23:28:10.515Z,14.85
2022-09-06T23:30:59.229Z,14.89
2022-09-06T23:33:47.977Z,14.85
2022-09-06T23:36:36.744Z,14.91
2022-09-06T23:39:25.408Z,14.86
2022-09-06T23:42:14.140Z,14.92
2022-09-06T23:45:04.214Z,14.93
2022-09-06T23:47:52.894Z,14.85
2022-09-06T23:50:41.659Z,14.81
2022-09-06T23:53:30.613Z,14.85
2022-09-06T23:56:19.240Z,14.66
2022-09-06T23:59:07.980Z,14.77
